Ns Spirit — ER2658 — position and weather

sailwx.info

Track history (hours):
 
Tides and Currents Weather Stations Pressure Air Temp Water Temp Dewpoint Dewpoint Depression Visibility Wind Speed Wind Dir Waves Ship Positions

Ns Spirit

Last reported at 2018-Apr-17 22:32 UTC. Time now 2018-Apr-20 02:53 UTC.
Position N 35°48' E 014°49'.

Length 89 m; draft 6.1 m.

Type: Cargo ship. MMSI: 214182658.

Date/timePositionNaut miles runAvg speedWind from/ knotsBaromVisibWave heightAir tempDewpointWater temp
2018-Apr-17 22:32N 35°48' E 014°49'0 0.1
2018-Apr-17 22:20N 35°48' E 014°49'0 0.0
2018-Apr-17 21:59N 35°48' E 014°49'0 0.0
2018-Apr-17 20:57N 35°48' E 014°49'0 0.0
2018-Apr-17 19:20N 35°48' E 014°49'7 6.4
2018-Apr-17 18:10N 35°45' E 014°41'6 8.0
2018-Apr-17 17:27N 35°43' E 014°34'5 7.8
2018-Apr-17 16:50N 35°41' E 014°29'3 7.9
2018-Apr-17 16:26N 35°39' E 014°26'3 7.8
2018-Apr-17 16:00N 35°37' E 014°22'13 7.2
2018-Apr-17 14:12N 35°29' E 014°09'2 7.3
2018-Apr-17 13:57N 35°28' E 014°08'3 6.6
2018-Apr-17 13:30N 35°26' E 014°05'3 6.8
2018-Apr-17 13:00N 35°24' E 014°02'4 7.0
2018-Apr-17 12:30N 35°22' E 013°58'5 7.2
2018-Apr-17 11:51N 35°19' E 013°54'3 7.5
2018-Apr-17 11:30N 35°18' E 013°51'4 7.7
2018-Apr-17 10:59N 35°15' E 013°47'4 8.0
2018-Apr-17 10:30N 35°12' E 013°44'4 8.0
2018-Apr-17 10:00N 35°10' E 013°40'4 8.0
2018-Apr-17 09:30N 35°07' E 013°36'4 7.9
2018-Apr-17 09:00N 35°05' E 013°33'4 7.8
2018-Apr-17 08:30N 35°02' E 013°29'  
Track history (hours):
 
Tides and Currents Weather Stations Pressure Air Temp Water Temp Dewpoint Dewpoint Depression Visibility Wind Speed Wind Dir Waves Ship Positions

Ns Spirit

Last reported at 2018-Apr-17 22:32 UTC. Time now 2018-Apr-20 02:53 UTC.
Position N 35°48' E 014°49'.

Length 89 m; draft 6.1 m.

Type: Cargo ship. MMSI: 214182658.

Date/timePositionNaut miles runAvg speedWind from/ knotsBaromVisibWave heightAir tempDewpointWater temp
2018-Apr-17 22:32N 35°48' E 014°49'0 0.1
2018-Apr-17 22:20N 35°48' E 014°49'0 0.0
2018-Apr-17 21:59N 35°48' E 014°49'0 0.0
2018-Apr-17 20:57N 35°48' E 014°49'0 0.0
2018-Apr-17 19:20N 35°48' E 014°49'7 6.4
2018-Apr-17 18:10N 35°45' E 014°41'6 8.0
2018-Apr-17 17:27N 35°43' E 014°34'5 7.8
2018-Apr-17 16:50N 35°41' E 014°29'3 7.9
2018-Apr-17 16:26N 35°39' E 014°26'3 7.8
2018-Apr-17 16:00N 35°37' E 014°22'13 7.2
2018-Apr-17 14:12N 35°29' E 014°09'2 7.3
2018-Apr-17 13:57N 35°28' E 014°08'3 6.6
2018-Apr-17 13:30N 35°26' E 014°05'3 6.8
2018-Apr-17 13:00N 35°24' E 014°02'4 7.0
2018-Apr-17 12:30N 35°22' E 013°58'5 7.2
2018-Apr-17 11:51N 35°19' E 013°54'3 7.5
2018-Apr-17 11:30N 35°18' E 013°51'4 7.7
2018-Apr-17 10:59N 35°15' E 013°47'4 8.0
2018-Apr-17 10:30N 35°12' E 013°44'4 8.0
2018-Apr-17 10:00N 35°10' E 013°40'4 8.0
2018-Apr-17 09:30N 35°07' E 013°36'4 7.9
2018-Apr-17 09:00N 35°05' E 013°33'4 7.8
2018-Apr-17 08:30N 35°02' E 013°29'  

Dump ship's entire track history